sensor_id;sensor_type;location;lat;lon;timestamp;P1;durP1;ratioP1;P2;durP2;ratioP2
67986;SDS011;54767;53.800;15.956;2022-11-15T00:01:32;51.10;;;25.80;;
67986;SDS011;54767;53.800;15.956;2022-11-15T00:04:01;52.00;;;25.90;;
67986;SDS011;54767;53.800;15.956;2022-11-15T00:06:29;52.90;;;27.10;;
67986;SDS011;54767;53.800;15.956;2022-11-15T00:08:58;51.60;;;26.20;;
67986;SDS011;54767;53.800;15.956;2022-11-15T00:11:28;49.60;;;24.80;;
67986;SDS011;54767;53.800;15.956;2022-11-15T00:13:57;51.00;;;25.50;;
67986;SDS011;54767;53.800;15.956;2022-11-15T00:16:25;53.90;;;27.00;;
67986;SDS011;54767;53.800;15.956;2022-11-15T00:18:54;47.00;;;25.00;;
67986;SDS011;54767;53.800;15.956;2022-11-15T00:21:22;51.20;;;26.20;;
67986;SDS011;54767;53.800;15.956;2022-11-15T00:23:50;49.90;;;26.10;;
67986;SDS011;54767;53.800;15.956;2022-11-15T00:26:19;48.90;;;25.20;;
67986;SDS011;54767;53.800;15.956;2022-11-15T00:28:47;49.70;;;25.60;;
67986;SDS011;54767;53.800;15.956;2022-11-15T00:31:16;49.10;;;25.20;;
67986;SDS011;54767;53.800;15.956;2022-11-15T00:33:44;48.60;;;24.50;;
67986;SDS011;54767;53.800;15.956;2022-11-15T00:36:13;50.90;;;26.10;;
67986;SDS011;54767;53.800;15.956;2022-11-15T00:38:41;50.70;;;25.70;;
67986;SDS011;54767;53.800;15.956;2022-11-15T00:41:09;51.00;;;25.80;;
67986;SDS011;54767;53.800;15.956;2022-11-15T00:43:38;48.30;;;25.50;;
67986;SDS011;54767;53.800;15.956;2022-11-15T00:48:37;52.90;;;25.50;;
67986;SDS011;54767;53.800;15.956;2022-11-15T00:51:05;52.00;;;25.20;;
67986;SDS011;54767;53.800;15.956;2022-11-15T00:53:34;49.70;;;24.90;;
67986;SDS011;54767;53.800;15.956;2022-11-15T00:56:02;56.10;;;26.60;;
67986;SDS011;54767;53.800;15.956;2022-11-15T00:58:30;47.50;;;24.80;;
67986;SDS011;54767;53.800;15.956;2022-11-15T01:01:06;51.50;;;25.20;;
67986;SDS011;54767;53.800;15.956;2022-11-15T01:03:36;49.90;;;25.60;;
67986;SDS011;54767;53.800;15.956;2022-11-15T01:06:06;48.80;;;24.10;;
67986;SDS011;54767;53.800;15.956;2022-11-15T01:08:36;51.20;;;25.00;;
67986;SDS011;54767;53.800;15.956;2022-11-15T01:11:05;49.80;;;25.30;;
67986;SDS011;54767;53.800;15.956;2022-11-15T01:13:36;47.40;;;25.40;;
67986;SDS011;54767;53.800;15.956;2022-11-15T01:16:08;48.90;;;23.80;;
67986;SDS011;54767;53.800;15.956;2022-11-15T01:18:40;53.60;;;25.70;;
67986;SDS011;54767;53.800;15.956;2022-11-15T01:21:13;50.50;;;25.60;;
67986;SDS011;54767;53.800;15.956;2022-11-15T01:23:43;47.10;;;23.80;;
67986;SDS011;54767;53.800;15.956;2022-11-15T01:26:13;45.70;;;22.80;;
67986;SDS011;54767;53.800;15.956;2022-11-15T01:28:43;49.00;;;23.80;;
67986;SDS011;54767;53.800;15.956;2022-11-15T01:31:12;43.60;;;23.60;;
67986;SDS011;54767;53.800;15.956;2022-11-15T01:33:42;45.10;;;23.40;;
67986;SDS011;54767;53.800;15.956;2022-11-15T01:36:12;44.00;;;23.80;;
67986;SDS011;54767;53.800;15.956;2022-11-15T01:38:46;45.30;;;22.70;;
67986;SDS011;54767;53.800;15.956;2022-11-15T01:41:15;44.60;;;23.60;;
67986;SDS011;54767;53.800;15.956;2022-11-15T01:43:46;46.60;;;23.80;;
67986;SDS011;54767;53.800;15.956;2022-11-15T01:48:55;46.70;;;24.00;;
67986;SDS011;54767;53.800;15.956;2022-11-15T01:51:28;46.40;;;23.90;;
67986;SDS011;54767;53.800;15.956;2022-11-15T01:54:04;45.00;;;23.40;;
67986;SDS011;54767;53.800;15.956;2022-11-15T01:56:37;45.10;;;23.30;;
67986;SDS011;54767;53.800;15.956;2022-11-15T01:59:12;48.50;;;23.20;;
67986;SDS011;54767;53.800;15.956;2022-11-15T02:01:40;44.30;;;22.60;;
67986;SDS011;54767;53.800;15.956;2022-11-15T02:06:39;45.00;;;23.30;;
67986;SDS011;54767;53.800;15.956;2022-11-15T02:09:08;43.10;;;22.00;;
67986;SDS011;54767;53.800;15.956;2022-11-15T02:11:37;43.70;;;21.50;;
67986;SDS011;54767;53.800;15.956;2022-11-15T02:14:06;43.70;;;22.00;;
67986;SDS011;54767;53.800;15.956;2022-11-15T02:25:10;45.30;;;22.10;;
67986;SDS011;54767;53.800;15.956;2022-11-15T02:30:42;44.40;;;23.20;;
67986;SDS011;54767;53.800;15.956;2022-11-15T02:33:33;49.80;;;23.30;;
67986;SDS011;54767;53.800;15.956;2022-11-15T02:36:09;45.40;;;23.50;;
67986;SDS011;54767;53.800;15.956;2022-11-15T02:38:48;47.00;;;23.30;;
67986;SDS011;54767;53.800;15.956;2022-11-15T02:41:38;42.20;;;22.00;;
67986;SDS011;54767;53.800;15.956;2022-11-15T02:44:14;47.90;;;23.70;;
67986;SDS011;54767;53.800;15.956;2022-11-15T02:49:52;44.70;;;21.80;;
67986;SDS011;54767;53.800;15.956;2022-11-15T02:52:23;46.80;;;23.10;;
67986;SDS011;54767;53.800;15.956;2022-11-15T02:54:56;45.50;;;23.70;;
67986;SDS011;54767;53.800;15.956;2022-11-15T03:00:19;47.10;;;22.30;;
67986;SDS011;54767;53.800;15.956;2022-11-15T03:05:44;44.50;;;22.20;;
67986;SDS011;54767;53.800;15.956;2022-11-15T03:11:09;44.30;;;22.60;;
67986;SDS011;54767;53.800;15.956;2022-11-15T03:16:30;45.70;;;22.60;;
67986;SDS011;54767;53.800;15.956;2022-11-15T03:21:33;45.60;;;22.40;;
67986;SDS011;54767;53.800;15.956;2022-11-15T03:24:03;47.00;;;22.60;;
67986;SDS011;54767;53.800;15.956;2022-11-15T03:26:34;48.70;;;22.90;;
67986;SDS011;54767;53.800;15.956;2022-11-15T03:29:08;42.70;;;22.20;;
67986;SDS011;54767;53.800;15.956;2022-11-15T03:31:43;45.40;;;22.70;;
67986;SDS011;54767;53.800;15.956;2022-11-15T03:34:26;43.80;;;21.20;;
67986;SDS011;54767;53.800;15.956;2022-11-15T03:36:58;47.00;;;23.20;;
67986;SDS011;54767;53.800;15.956;2022-11-15T03:39:26;47.50;;;22.80;;
67986;SDS011;54767;53.800;15.956;2022-11-15T03:47:51;47.00;;;23.70;;
67986;SDS011;54767;53.800;15.956;2022-11-15T03:50:26;45.70;;;22.30;;
67986;SDS011;54767;53.800;15.956;2022-11-15T03:55:25;47.10;;;22.70;;
67986;SDS011;54767;53.800;15.956;2022-11-15T03:57:54;47.60;;;22.90;;
67986;SDS011;54767;53.800;15.956;2022-11-15T04:00:26;40.50;;;21.50;;
67986;SDS011;54767;53.800;15.956;2022-11-15T04:02:54;48.10;;;23.40;;
67986;SDS011;54767;53.800;15.956;2022-11-15T04:05:23;44.00;;;21.50;;
67986;SDS011;54767;53.800;15.956;2022-11-15T04:07:51;44.90;;;21.90;;
67986;SDS011;54767;53.800;15.956;2022-11-15T04:10:20;43.00;;;21.40;;
67986;SDS011;54767;53.800;15.956;2022-11-15T04:12:48;42.70;;;22.10;;
67986;SDS011;54767;53.800;15.956;2022-11-15T04:15:18;44.30;;;23.60;;
67986;SDS011;54767;53.800;15.956;2022-11-15T04:17:50;48.40;;;22.50;;
67986;SDS011;54767;53.800;15.956;2022-11-15T04:20:21;43.60;;;22.00;;
67986;SDS011;54767;53.800;15.956;2022-11-15T04:23:10;42.90;;;21.70;;
67986;SDS011;54767;53.800;15.956;2022-11-15T04:26:01;41.90;;;20.80;;
67986;SDS011;54767;53.800;15.956;2022-11-15T04:28:35;41.60;;;21.90;;
67986;SDS011;54767;53.800;15.956;2022-11-15T04:31:24;40.40;;;22.20;;
67986;SDS011;54767;53.800;15.956;2022-11-15T04:33:52;39.70;;;21.50;;
67986;SDS011;54767;53.800;15.956;2022-11-15T04:36:21;42.40;;;21.20;;
67986;SDS011;54767;53.800;15.956;2022-11-15T04:39:08;40.10;;;20.60;;
67986;SDS011;54767;53.800;15.956;2022-11-15T04:41:37;46.20;;;22.10;;
67986;SDS011;54767;53.800;15.956;2022-11-15T04:44:05;37.60;;;20.30;;
67986;SDS011;54767;53.800;15.956;2022-11-15T04:46:33;40.30;;;20.90;;
67986;SDS011;54767;53.800;15.956;2022-11-15T04:49:02;42.10;;;21.50;;
67986;SDS011;54767;53.800;15.956;2022-11-15T04:51:30;40.30;;;20.70;;
67986;SDS011;54767;53.800;15.956;2022-11-15T04:53:58;41.50;;;21.80;;
67986;SDS011;54767;53.800;15.956;2022-11-15T04:56:27;41.00;;;20.30;;
67986;SDS011;54767;53.800;15.956;2022-11-15T04:58:55;43.70;;;21.70;;
67986;SDS011;54767;53.800;15.956;2022-11-15T05:01:23;41.00;;;21.20;;
67986;SDS011;54767;53.800;15.956;2022-11-15T05:03:52;44.20;;;22.40;;
67986;SDS011;54767;53.800;15.956;2022-11-15T05:06:38;43.90;;;21.00;;
67986;SDS011;54767;53.800;15.956;2022-11-15T05:09:07;43.40;;;21.60;;
67986;SDS011;54767;53.800;15.956;2022-11-15T05:11:35;38.70;;;20.50;;
67986;SDS011;54767;53.800;15.956;2022-11-15T05:14:04;42.20;;;21.30;;
67986;SDS011;54767;53.800;15.956;2022-11-15T05:16:32;44.70;;;22.60;;
67986;SDS011;54767;53.800;15.956;2022-11-15T05:19:00;41.90;;;20.40;;
67986;SDS011;54767;53.800;15.956;2022-11-15T05:21:29;39.10;;;20.70;;
67986;SDS011;54767;53.800;15.956;2022-11-15T05:23:58;41.90;;;22.00;;
67986;SDS011;54767;53.800;15.956;2022-11-15T05:26:26;38.50;;;21.00;;
67986;SDS011;54767;53.800;15.956;2022-11-15T05:28:55;40.60;;;20.40;;
67986;SDS011;54767;53.800;15.956;2022-11-15T05:31:26;40.50;;;20.00;;
67986;SDS011;54767;53.800;15.956;2022-11-15T05:33:55;37.70;;;19.80;;
67986;SDS011;54767;53.800;15.956;2022-11-15T05:36:34;37.70;;;20.30;;
67986;SDS011;54767;53.800;15.956;2022-11-15T05:39:06;45.20;;;22.50;;
67986;SDS011;54767;53.800;15.956;2022-11-15T05:41:40;39.40;;;21.30;;
67986;SDS011;54767;53.800;15.956;2022-11-15T05:44:13;37.30;;;19.70;;
67986;SDS011;54767;53.800;15.956;2022-11-15T05:46:44;37.40;;;20.60;;
67986;SDS011;54767;53.800;15.956;2022-11-15T05:49:14;39.30;;;19.60;;
67986;SDS011;54767;53.800;15.956;2022-11-15T05:51:47;39.20;;;20.20;;
67986;SDS011;54767;53.800;15.956;2022-11-15T05:54:17;36.90;;;19.30;;
67986;SDS011;54767;53.800;15.956;2022-11-15T05:56:48;40.10;;;19.70;;
67986;SDS011;54767;53.800;15.956;2022-11-15T05:59:17;40.50;;;19.40;;
67986;SDS011;54767;53.800;15.956;2022-11-15T06:01:46;36.70;;;19.90;;
67986;SDS011;54767;53.800;15.956;2022-11-15T06:04:15;36.00;;;19.50;;
67986;SDS011;54767;53.800;15.956;2022-11-15T06:06:44;38.70;;;20.00;;
67986;SDS011;54767;53.800;15.956;2022-11-15T06:09:12;36.60;;;19.60;;
67986;SDS011;54767;53.800;15.956;2022-11-15T06:11:40;37.80;;;20.00;;
67986;SDS011;54767;53.800;15.956;2022-11-15T06:14:09;36.70;;;18.60;;
67986;SDS011;54767;53.800;15.956;2022-11-15T06:16:37;36.00;;;19.30;;
67986;SDS011;54767;53.800;15.956;2022-11-15T06:19:05;37.90;;;19.80;;
67986;SDS011;54767;53.800;15.956;2022-11-15T06:21:35;37.90;;;19.60;;
67986;SDS011;54767;53.800;15.956;2022-11-15T06:24:04;38.00;;;19.50;;
67986;SDS011;54767;53.800;15.956;2022-11-15T06:26:33;38.60;;;20.10;;
67986;SDS011;54767;53.800;15.956;2022-11-15T06:29:02;40.40;;;19.70;;
67986;SDS011;54767;53.800;15.956;2022-11-15T06:31:33;35.00;;;18.90;;
67986;SDS011;54767;53.800;15.956;2022-11-15T06:34:02;37.70;;;20.10;;
67986;SDS011;54767;53.800;15.956;2022-11-15T06:36:30;37.40;;;19.00;;
67986;SDS011;54767;53.800;15.956;2022-11-15T06:39:02;37.50;;;19.00;;
67986;SDS011;54767;53.800;15.956;2022-11-15T06:41:35;36.00;;;18.80;;
67986;SDS011;54767;53.800;15.956;2022-11-15T06:44:04;36.30;;;18.70;;
67986;SDS011;54767;53.800;15.956;2022-11-15T06:46:32;36.70;;;19.60;;
67986;SDS011;54767;53.800;15.956;2022-11-15T06:49:00;38.50;;;20.30;;
67986;SDS011;54767;53.800;15.956;2022-11-15T06:51:36;39.40;;;21.70;;
67986;SDS011;54767;53.800;15.956;2022-11-15T06:54:04;36.90;;;20.40;;
67986;SDS011;54767;53.800;15.956;2022-11-15T06:56:33;35.90;;;19.90;;
67986;SDS011;54767;53.800;15.956;2022-11-15T06:59:01;36.80;;;19.90;;
67986;SDS011;54767;53.800;15.956;2022-11-15T07:01:30;36.40;;;18.50;;
67986;SDS011;54767;53.800;15.956;2022-11-15T07:03:58;36.30;;;18.90;;
67986;SDS011;54767;53.800;15.956;2022-11-15T07:06:27;37.00;;;18.90;;
67986;SDS011;54767;53.800;15.956;2022-11-15T07:08:55;38.80;;;20.10;;
67986;SDS011;54767;53.800;15.956;2022-11-15T07:11:23;35.90;;;19.50;;
67986;SDS011;54767;53.800;15.956;2022-11-15T07:13:52;37.00;;;19.30;;
67986;SDS011;54767;53.800;15.956;2022-11-15T07:16:20;37.50;;;19.20;;
67986;SDS011;54767;53.800;15.956;2022-11-15T07:18:49;37.40;;;19.40;;
67986;SDS011;54767;53.800;15.956;2022-11-15T07:21:17;34.80;;;18.30;;
67986;SDS011;54767;53.800;15.956;2022-11-15T07:23:53;32.10;;;17.50;;
67986;SDS011;54767;53.800;15.956;2022-11-15T07:26:21;35.30;;;19.60;;
67986;SDS011;54767;53.800;15.956;2022-11-15T07:28:50;35.90;;;19.10;;
67986;SDS011;54767;53.800;15.956;2022-11-15T07:31:18;34.20;;;18.40;;
67986;SDS011;54767;53.800;15.956;2022-11-15T07:33:46;35.40;;;19.20;;
67986;SDS011;54767;53.800;15.956;2022-11-15T07:36:15;36.10;;;18.40;;
67986;SDS011;54767;53.800;15.956;2022-11-15T07:38:43;34.80;;;18.50;;
67986;SDS011;54767;53.800;15.956;2022-11-15T07:41:11;34.20;;;18.20;;
67986;SDS011;54767;53.800;15.956;2022-11-15T07:43:40;35.50;;;18.30;;
67986;SDS011;54767;53.800;15.956;2022-11-15T07:46:08;33.70;;;18.10;;
67986;SDS011;54767;53.800;15.956;2022-11-15T07:48:38;33.90;;;17.30;;
67986;SDS011;54767;53.800;15.956;2022-11-15T07:51:12;33.00;;;18.00;;
67986;SDS011;54767;53.800;15.956;2022-11-15T07:56:11;34.30;;;17.70;;
67986;SDS011;54767;53.800;15.956;2022-11-15T07:58:40;34.60;;;18.30;;
67986;SDS011;54767;53.800;15.956;2022-11-15T08:01:09;36.50;;;18.40;;
67986;SDS011;54767;53.800;15.956;2022-11-15T08:03:38;34.00;;;17.70;;
67986;SDS011;54767;53.800;15.956;2022-11-15T08:06:06;32.40;;;18.40;;
67986;SDS011;54767;53.800;15.956;2022-11-15T08:08:35;34.10;;;18.40;;
67986;SDS011;54767;53.800;15.956;2022-11-15T08:11:03;33.80;;;18.40;;
67986;SDS011;54767;53.800;15.956;2022-11-15T08:13:32;35.80;;;18.10;;
67986;SDS011;54767;53.800;15.956;2022-11-15T08:16:02;38.10;;;18.50;;
67986;SDS011;54767;53.800;15.956;2022-11-15T08:18:33;34.90;;;19.10;;
67986;SDS011;54767;53.800;15.956;2022-11-15T08:21:02;36.50;;;19.10;;
67986;SDS011;54767;53.800;15.956;2022-11-15T08:23:31;33.90;;;18.90;;
67986;SDS011;54767;53.800;15.956;2022-11-15T08:26:01;33.10;;;17.20;;
67986;SDS011;54767;53.800;15.956;2022-11-15T08:28:31;33.70;;;19.10;;
67986;SDS011;54767;53.800;15.956;2022-11-15T08:31:00;32.40;;;17.50;;
67986;SDS011;54767;53.800;15.956;2022-11-15T08:33:29;34.40;;;17.80;;
67986;SDS011;54767;53.800;15.956;2022-11-15T08:35:59;34.50;;;18.10;;
67986;SDS011;54767;53.800;15.956;2022-11-15T08:38:28;32.50;;;17.40;;
67986;SDS011;54767;53.800;15.956;2022-11-15T08:41:01;32.00;;;17.20;;
67986;SDS011;54767;53.800;15.956;2022-11-15T08:43:32;33.30;;;17.90;;
67986;SDS011;54767;53.800;15.956;2022-11-15T08:46:01;29.60;;;16.80;;
67986;SDS011;54767;53.800;15.956;2022-11-15T08:48:29;30.80;;;16.40;;
67986;SDS011;54767;53.800;15.956;2022-11-15T08:50:58;32.80;;;17.70;;
67986;SDS011;54767;53.800;15.956;2022-11-15T08:53:27;31.50;;;17.90;;
67986;SDS011;54767;53.800;15.956;2022-11-15T08:55:55;35.90;;;18.70;;
67986;SDS011;54767;53.800;15.956;2022-11-15T08:58:24;32.60;;;17.60;;
67986;SDS011;54767;53.800;15.956;2022-11-15T09:00:52;35.40;;;18.30;;
67986;SDS011;54767;53.800;15.956;2022-11-15T09:03:20;32.90;;;17.40;;
67986;SDS011;54767;53.800;15.956;2022-11-15T09:05:48;34.50;;;17.80;;
67986;SDS011;54767;53.800;15.956;2022-11-15T09:08:22;32.20;;;16.90;;
67986;SDS011;54767;53.800;15.956;2022-11-15T09:11:11;32.00;;;17.40;;
67986;SDS011;54767;53.800;15.956;2022-11-15T09:13:40;32.20;;;17.50;;
67986;SDS011;54767;53.800;15.956;2022-11-15T09:16:09;37.40;;;18.90;;
67986;SDS011;54767;53.800;15.956;2022-11-15T09:18:39;34.40;;;18.70;;
67986;SDS011;54767;53.800;15.956;2022-11-15T09:21:08;33.00;;;17.50;;
67986;SDS011;54767;53.800;15.956;2022-11-15T09:23:37;35.00;;;18.20;;
67986;SDS011;54767;53.800;15.956;2022-11-15T09:26:06;38.30;;;19.00;;
67986;SDS011;54767;53.800;15.956;2022-11-15T09:28:35;37.10;;;20.60;;
67986;SDS011;54767;53.800;15.956;2022-11-15T09:33:34;33.20;;;18.50;;
67986;SDS011;54767;53.800;15.956;2022-11-15T09:36:03;30.90;;;17.60;;
67986;SDS011;54767;53.800;15.956;2022-11-15T09:38:33;31.20;;;15.90;;
67986;SDS011;54767;53.800;15.956;2022-11-15T09:50:06;32.20;;;17.80;;
67986;SDS011;54767;53.800;15.956;2022-11-15T09:52:39;31.70;;;16.60;;
67986;SDS011;54767;53.800;15.956;2022-11-15T09:55:11;32.50;;;17.60;;
67986;SDS011;54767;53.800;15.956;2022-11-15T09:57:49;31.80;;;16.90;;
67986;SDS011;54767;53.800;15.956;2022-11-15T10:00:29;30.50;;;16.90;;
67986;SDS011;54767;53.800;15.956;2022-11-15T10:03:18;31.30;;;17.00;;
67986;SDS011;54767;53.800;15.956;2022-11-15T10:06:00;32.90;;;17.20;;
67986;SDS011;54767;53.800;15.956;2022-11-15T10:11:23;33.00;;;16.30;;
67986;SDS011;54767;53.800;15.956;2022-11-15T10:14:13;32.70;;;17.40;;
67986;SDS011;54767;53.800;15.956;2022-11-15T10:17:01;29.70;;;15.60;;
67986;SDS011;54767;53.800;15.956;2022-11-15T10:22:48;31.10;;;16.10;;
67986;SDS011;54767;53.800;15.956;2022-11-15T10:27:57;31.30;;;17.10;;
67986;SDS011;54767;53.800;15.956;2022-11-15T10:30:38;34.10;;;17.80;;
67986;SDS011;54767;53.800;15.956;2022-11-15T10:44:08;30.60;;;16.20;;
67986;SDS011;54767;53.800;15.956;2022-11-15T10:49:26;28.80;;;15.40;;
67986;SDS011;54767;53.800;15.956;2022-11-15T10:52:04;43.20;;;22.50;;
67986;SDS011;54767;53.800;15.956;2022-11-15T10:57:37;46.40;;;25.10;;
67986;SDS011;54767;53.800;15.956;2022-11-15T11:10:38;31.20;;;17.60;;
67986;SDS011;54767;53.800;15.956;2022-11-15T11:13:27;31.30;;;16.60;;
67986;SDS011;54767;53.800;15.956;2022-11-15T11:18:56;31.70;;;18.30;;
67986;SDS011;54767;53.800;15.956;2022-11-15T11:22:17;36.80;;;21.40;;
67986;SDS011;54767;53.800;15.956;2022-11-15T11:24:59;36.10;;;20.40;;
67986;SDS011;54767;53.800;15.956;2022-11-15T11:30:21;32.50;;;18.50;;
67986;SDS011;54767;53.800;15.956;2022-11-15T11:33:02;37.00;;;19.60;;
67986;SDS011;54767;53.800;15.956;2022-11-15T11:41:38;45.20;;;22.50;;
67986;SDS011;54767;53.800;15.956;2022-11-15T11:47:21;44.90;;;23.00;;
67986;SDS011;54767;53.800;15.956;2022-11-15T11:49:54;47.90;;;24.40;;
67986;SDS011;54767;53.800;15.956;2022-11-15T11:52:35;37.30;;;22.20;;
67986;SDS011;54767;53.800;15.956;2022-11-15T11:55:15;35.70;;;18.90;;
67986;SDS011;54767;53.800;15.956;2022-11-15T12:01:20;35.80;;;19.70;;
67986;SDS011;54767;53.800;15.956;2022-11-15T12:09:20;44.60;;;24.10;;
67986;SDS011;54767;53.800;15.956;2022-11-15T12:15:12;52.00;;;25.00;;
67986;SDS011;54767;53.800;15.956;2022-11-15T12:17:45;41.60;;;22.50;;
67986;SDS011;54767;53.800;15.956;2022-11-15T12:22:52;65.60;;;30.50;;
67986;SDS011;54767;53.800;15.956;2022-11-15T12:25:29;63.10;;;29.30;;
67986;SDS011;54767;53.800;15.956;2022-11-15T12:28:01;55.50;;;28.30;;
67986;SDS011;54767;53.800;15.956;2022-11-15T12:30:41;51.90;;;26.10;;
67986;SDS011;54767;53.800;15.956;2022-11-15T12:34:01;53.70;;;25.10;;
67986;SDS011;54767;53.800;15.956;2022-11-15T12:36:11;47.10;;;22.60;;
67986;SDS011;54767;53.800;15.956;2022-11-15T12:39:07;57.20;;;25.60;;
67986;SDS011;54767;53.800;15.956;2022-11-15T12:41:38;67.00;;;30.50;;
67986;SDS011;54767;53.800;15.956;2022-11-15T12:44:12;51.60;;;25.60;;
67986;SDS011;54767;53.800;15.956;2022-11-15T12:47:35;48.40;;;22.60;;
67986;SDS011;54767;53.800;15.956;2022-11-15T12:49:55;53.60;;;24.40;;
67986;SDS011;54767;53.800;15.956;2022-11-15T12:52:24;47.00;;;22.40;;
67986;SDS011;54767;53.800;15.956;2022-11-15T12:54:53;39.50;;;20.50;;
67986;SDS011;54767;53.800;15.956;2022-11-15T12:57:30;39.30;;;21.30;;
67986;SDS011;54767;53.800;15.956;2022-11-15T13:00:04;45.50;;;21.30;;
67986;SDS011;54767;53.800;15.956;2022-11-15T13:03:12;35.70;;;19.10;;
67986;SDS011;54767;53.800;15.956;2022-11-15T13:05:54;39.60;;;22.40;;
67986;SDS011;54767;53.800;15.956;2022-11-15T13:08:35;44.60;;;24.80;;
67986;SDS011;54767;53.800;15.956;2022-11-15T13:17:12;36.60;;;18.20;;
67986;SDS011;54767;53.800;15.956;2022-11-15T13:20:28;39.30;;;20.20;;
67986;SDS011;54767;53.800;15.956;2022-11-15T13:22:39;41.40;;;20.80;;
67986;SDS011;54767;53.800;15.956;2022-11-15T13:27:58;38.00;;;19.30;;
67986;SDS011;54767;53.800;15.956;2022-11-15T13:30:34;40.00;;;20.10;;
67986;SDS011;54767;53.800;15.956;2022-11-15T13:33:08;40.40;;;19.30;;
67986;SDS011;54767;53.800;15.956;2022-11-15T13:36:05;38.90;;;19.10;;
67986;SDS011;54767;53.800;15.956;2022-11-15T13:38:37;39.60;;;19.40;;
67986;SDS011;54767;53.800;15.956;2022-11-15T13:41:20;54.50;;;27.90;;
67986;SDS011;54767;53.800;15.956;2022-11-15T13:43:51;39.20;;;19.40;;
67986;SDS011;54767;53.800;15.956;2022-11-15T13:46:25;41.60;;;20.80;;
67986;SDS011;54767;53.800;15.956;2022-11-15T13:48:59;42.80;;;19.90;;
67986;SDS011;54767;53.800;15.956;2022-11-15T13:54:38;42.30;;;19.90;;
67986;SDS011;54767;53.800;15.956;2022-11-15T13:57:03;41.80;;;18.90;;
67986;SDS011;54767;53.800;15.956;2022-11-15T13:59:34;43.40;;;20.50;;
67986;SDS011;54767;53.800;15.956;2022-11-15T14:02:12;70.20;;;31.30;;
67986;SDS011;54767;53.800;15.956;2022-11-15T14:05:14;51.30;;;25.30;;
67986;SDS011;54767;53.800;15.956;2022-11-15T14:07:53;42.50;;;19.40;;
67986;SDS011;54767;53.800;15.956;2022-11-15T14:10:33;38.80;;;18.40;;
67986;SDS011;54767;53.800;15.956;2022-11-15T14:13:04;41.00;;;18.90;;
67986;SDS011;54767;53.800;15.956;2022-11-15T14:15:39;37.40;;;18.50;;
67986;SDS011;54767;53.800;15.956;2022-11-15T14:18:38;38.40;;;17.80;;
67986;SDS011;54767;53.800;15.956;2022-11-15T14:21:11;37.30;;;19.50;;
67986;SDS011;54767;53.800;15.956;2022-11-15T14:23:40;40.30;;;18.20;;
67986;SDS011;54767;53.800;15.956;2022-11-15T14:26:29;39.20;;;19.10;;
67986;SDS011;54767;53.800;15.956;2022-11-15T14:31:54;42.50;;;18.30;;
67986;SDS011;54767;53.800;15.956;2022-11-15T14:34:40;38.30;;;19.00;;
67986;SDS011;54767;53.800;15.956;2022-11-15T14:37:25;47.00;;;21.30;;
67986;SDS011;54767;53.800;15.956;2022-11-15T14:39:56;41.80;;;17.70;;
67986;SDS011;54767;53.800;15.956;2022-11-15T14:42:24;52.70;;;24.50;;
67986;SDS011;54767;53.800;15.956;2022-11-15T14:44:53;57.40;;;25.80;;
67986;SDS011;54767;53.800;15.956;2022-11-15T14:47:22;37.70;;;18.20;;
67986;SDS011;54767;53.800;15.956;2022-11-15T14:49:50;49.20;;;21.40;;
67986;SDS011;54767;53.800;15.956;2022-11-15T14:52:26;42.90;;;19.30;;
67986;SDS011;54767;53.800;15.956;2022-11-15T14:55:00;43.60;;;19.40;;
67986;SDS011;54767;53.800;15.956;2022-11-15T14:57:30;35.30;;;16.00;;
67986;SDS011;54767;53.800;15.956;2022-11-15T14:59:58;42.80;;;20.30;;
67986;SDS011;54767;53.800;15.956;2022-11-15T15:02:27;44.50;;;21.20;;
67986;SDS011;54767;53.800;15.956;2022-11-15T15:04:55;45.90;;;22.30;;
67986;SDS011;54767;53.800;15.956;2022-11-15T15:07:28;48.80;;;21.10;;
67986;SDS011;54767;53.800;15.956;2022-11-15T15:09:57;71.20;;;31.70;;
67986;SDS011;54767;53.800;15.956;2022-11-15T15:12:45;68.40;;;29.00;;
67986;SDS011;54767;53.800;15.956;2022-11-15T15:15:15;75.30;;;31.10;;
67986;SDS011;54767;53.800;15.956;2022-11-15T15:17:45;66.70;;;29.40;;
67986;SDS011;54767;53.800;15.956;2022-11-15T15:20:14;58.70;;;26.80;;
67986;SDS011;54767;53.800;15.956;2022-11-15T15:22:43;53.60;;;25.40;;
67986;SDS011;54767;53.800;15.956;2022-11-15T15:28:02;52.90;;;23.60;;
67986;SDS011;54767;53.800;15.956;2022-11-15T15:30:31;55.70;;;27.50;;
67986;SDS011;54767;53.800;15.956;2022-11-15T15:32:59;41.30;;;19.40;;
67986;SDS011;54767;53.800;15.956;2022-11-15T15:35:29;43.70;;;20.30;;
67986;SDS011;54767;53.800;15.956;2022-11-15T15:37:59;47.50;;;21.00;;
67986;SDS011;54767;53.800;15.956;2022-11-15T15:40:29;48.20;;;21.40;;
67986;SDS011;54767;53.800;15.956;2022-11-15T15:42:59;45.80;;;20.50;;
67986;SDS011;54767;53.800;15.956;2022-11-15T15:45:28;43.60;;;20.20;;
67986;SDS011;54767;53.800;15.956;2022-11-15T15:47:57;43.40;;;20.90;;
67986;SDS011;54767;53.800;15.956;2022-11-15T15:50:27;83.40;;;39.40;;
67986;SDS011;54767;53.800;15.956;2022-11-15T15:52:58;155.80;;;56.20;;
67986;SDS011;54767;53.800;15.956;2022-11-15T15:55:28;138.60;;;54.50;;
67986;SDS011;54767;53.800;15.956;2022-11-15T15:57:57;189.60;;;70.40;;
67986;SDS011;54767;53.800;15.956;2022-11-15T16:00:26;178.80;;;65.10;;
67986;SDS011;54767;53.800;15.956;2022-11-15T16:02:54;135.20;;;55.20;;
67986;SDS011;54767;53.800;15.956;2022-11-15T16:05:23;109.60;;;46.80;;
67986;SDS011;54767;53.800;15.956;2022-11-15T16:07:51;99.40;;;42.70;;
67986;SDS011;54767;53.800;15.956;2022-11-15T16:12:53;54.80;;;29.50;;
67986;SDS011;54767;53.800;15.956;2022-11-15T16:15:23;53.40;;;30.00;;
67986;SDS011;54767;53.800;15.956;2022-11-15T16:17:54;84.00;;;31.50;;
67986;SDS011;54767;53.800;15.956;2022-11-15T16:20:38;76.30;;;35.70;;
67986;SDS011;54767;53.800;15.956;2022-11-15T16:23:17;79.40;;;35.10;;
67986;SDS011;54767;53.800;15.956;2022-11-15T16:25:56;71.70;;;30.60;;
67986;SDS011;54767;53.800;15.956;2022-11-15T16:28:27;58.60;;;24.70;;
67986;SDS011;54767;53.800;15.956;2022-11-15T16:33:31;56.20;;;25.40;;
67986;SDS011;54767;53.800;15.956;2022-11-15T16:36:01;61.00;;;29.80;;
67986;SDS011;54767;53.800;15.956;2022-11-15T16:38:29;90.10;;;35.90;;
67986;SDS011;54767;53.800;15.956;2022-11-15T16:40:58;68.70;;;30.10;;
67986;SDS011;54767;53.800;15.956;2022-11-15T16:43:27;60.70;;;27.00;;
67986;SDS011;54767;53.800;15.956;2022-11-15T16:45:55;62.40;;;25.30;;
67986;SDS011;54767;53.800;15.956;2022-11-15T16:48:27;102.90;;;38.60;;
67986;SDS011;54767;53.800;15.956;2022-11-15T16:50:57;119.90;;;45.50;;
67986;SDS011;54767;53.800;15.956;2022-11-15T16:53:27;68.80;;;28.80;;
67986;SDS011;54767;53.800;15.956;2022-11-15T16:55:58;72.10;;;30.10;;
67986;SDS011;54767;53.800;15.956;2022-11-15T16:58:27;62.80;;;32.60;;
67986;SDS011;54767;53.800;15.956;2022-11-15T17:00:56;68.90;;;34.80;;
67986;SDS011;54767;53.800;15.956;2022-11-15T17:03:25;40.40;;;17.60;;
67986;SDS011;54767;53.800;15.956;2022-11-15T17:05:56;45.10;;;20.40;;